createdAt,value
2019-02-25T00:00:37.207Z,7.9
2019-02-25T00:01:38.597Z,7.9
2019-02-25T00:02:40.139Z,7.9
2019-02-25T00:03:41.715Z,7.9
2019-02-25T00:04:43.263Z,7.8
2019-02-25T00:05:44.835Z,7.9
2019-02-25T00:06:46.403Z,7.9
2019-02-25T00:07:47.787Z,7.9
2019-02-25T00:08:49.346Z,7.9
2019-02-25T00:09:50.584Z,7.9
2019-02-25T00:10:51.848Z,7.9
2019-02-25T00:11:53.263Z,7.9
2019-02-25T00:12:55.084Z,7.9
2019-02-25T00:13:56.528Z,7.9
2019-02-25T00:15:12.757Z,7.9
2019-02-25T00:16:14.304Z,7.9
2019-02-25T00:17:15.533Z,7.9
2019-02-25T00:18:17.077Z,7.9
2019-02-25T00:19:18.486Z,7.9
2019-02-25T00:20:20.084Z,7.9
2019-02-25T00:21:21.643Z,7.9
2019-02-25T00:22:23.220Z,7.9
2019-02-25T00:23:24.585Z,7.9
2019-02-25T00:24:26.156Z,7.9
2019-02-25T00:25:27.719Z,7.9
2019-02-25T00:26:29.260Z,7.9
2019-02-25T00:27:30.794Z,7.9
2019-02-25T00:28:32.394Z,7.9
2019-02-25T00:29:33.955Z,7.9
2019-02-25T00:30:35.353Z,7.9
2019-02-25T00:31:36.585Z,7.9
2019-02-25T00:32:38.119Z,7.8
2019-02-25T00:33:39.337Z,7.8
2019-02-25T00:34:40.864Z,7.8
2019-02-25T00:35:42.263Z,7.8
2019-02-25T00:36:43.824Z,7.9
2019-02-25T00:37:45.382Z,7.9
2019-02-25T00:38:46.924Z,7.9
2019-02-25T00:39:48.465Z,7.8
2019-02-25T00:40:50.025Z,7.8
2019-02-25T00:41:51.437Z,7.8
2019-02-25T00:42:52.836Z,7.8
2019-02-25T00:43:54.373Z,7.8
2019-02-25T00:44:55.765Z,7.8
2019-02-25T00:45:57.330Z,7.8
2019-02-25T00:46:58.713Z,7.8
2019-02-25T00:48:00.264Z,7.8
2019-02-25T00:49:01.649Z,7.8
2019-02-25T00:50:03.064Z,7.8
2019-02-25T00:51:04.607Z,7.8
2019-02-25T00:52:06.007Z,7.8
2019-02-25T00:53:07.424Z,7.8
2019-02-25T00:54:08.676Z,7.8
2019-02-25T00:55:10.083Z,7.8
2019-02-25T00:56:11.317Z,7.8
2019-02-25T00:57:12.875Z,7.9
2019-02-25T00:58:14.107Z,7.9
2019-02-25T00:59:15.484Z,7.9
2019-02-25T01:00:16.730Z,7.9
2019-02-25T01:01:17.976Z,7.9
2019-02-25T01:02:19.387Z,7.9
2019-02-25T01:03:20.779Z,7.9
2019-02-25T01:04:22.183Z,7.9
2019-02-25T01:05:23.735Z,7.9
2019-02-25T01:06:25.307Z,7.2
2019-02-25T01:07:26.901Z,7.3
2019-02-25T01:08:28.453Z,7.3
2019-02-25T01:09:30.031Z,7.4
2019-02-25T01:10:31.466Z,7.4
2019-02-25T01:11:32.864Z,7.5
2019-02-25T01:12:34.246Z,7.5
2019-02-25T01:13:35.781Z,7.6
2019-02-25T01:14:37.336Z,7.6
2019-02-25T01:15:38.888Z,7.6
2019-02-25T01:16:40.284Z,7.7
2019-02-25T01:17:41.677Z,7.7
2019-02-25T01:18:43.224Z,7.8
2019-02-25T01:19:44.612Z,7.8
2019-02-25T01:20:46.000Z,7.8
2019-02-25T01:21:47.403Z,7.9
2019-02-25T01:22:48.967Z,7.9
2019-02-25T01:23:50.612Z,7.9
2019-02-25T01:24:52.174Z,7.9
2019-02-25T01:25:53.718Z,7.9
2019-02-25T01:26:55.252Z,7.8
2019-02-25T01:27:56.627Z,7.9
2019-02-25T01:28:58.155Z,7.9
2019-02-25T01:29:59.688Z,7.9
2019-02-25T01:31:01.246Z,7.9
2019-02-25T01:32:02.731Z,7.9
2019-02-25T01:33:04.134Z,7.9
2019-02-25T01:34:05.706Z,7.8
2019-02-25T01:35:07.138Z,7.9
2019-02-25T01:36:08.693Z,7.8
2019-02-25T01:37:10.226Z,7.8
2019-02-25T01:38:11.614Z,7.8
2019-02-25T01:39:13.171Z,7.8
2019-02-25T01:40:14.754Z,7.8
2019-02-25T01:41:16.297Z,7.8
2019-02-25T01:42:17.860Z,7.8
2019-02-25T01:43:19.410Z,7.8
2019-02-25T01:44:21.018Z,7.8
2019-02-25T01:45:22.564Z,7.8
2019-02-25T01:46:24.107Z,7.8
2019-02-25T01:47:25.651Z,7.8
2019-02-25T01:48:27.051Z,7.8
2019-02-25T01:49:28.339Z,7.8
2019-02-25T01:50:29.409Z,7.8
2019-02-25T01:51:30.801Z,7.8
2019-02-25T01:52:32.210Z,7.8
2019-02-25T01:53:33.768Z,7.8
2019-02-25T01:54:35.314Z,7.8
2019-02-25T01:55:36.710Z,7.8
2019-02-25T01:56:38.251Z,7.8
2019-02-25T01:57:39.639Z,7.8
2019-02-25T01:58:41.040Z,7.8
2019-02-25T01:59:42.586Z,7.8
2019-02-25T02:00:43.977Z,7.8
2019-02-25T02:01:45.073Z,7.8
2019-02-25T02:02:46.545Z,7.8
2019-02-25T02:03:47.944Z,7.8
2019-02-25T02:04:49.499Z,7.8
2019-02-25T02:05:50.749Z,7.8
2019-02-25T02:06:51.982Z,7.8
2019-02-25T02:07:53.543Z,7.8
2019-02-25T02:08:55.113Z,7.7
2019-02-25T02:09:56.513Z,7.6
2019-02-25T02:10:58.036Z,7.5
2019-02-25T02:11:59.411Z,7.4
2019-02-25T02:13:00.976Z,7.2
2019-02-25T02:14:02.521Z,7.1
2019-02-25T02:15:04.119Z,7.1
2019-02-25T02:16:05.681Z,7.1
2019-02-25T02:17:07.067Z,7.1
2019-02-25T02:18:08.447Z,7.1
2019-02-25T02:19:10.012Z,7.1
2019-02-25T02:20:11.400Z,7.1
2019-02-25T02:21:12.958Z,7.1
2019-02-25T02:22:14.537Z,7.1
2019-02-25T02:23:15.932Z,7.1
2019-02-25T02:24:17.323Z,7.1
2019-02-25T02:25:18.876Z,7.1
2019-02-25T02:26:22.599Z,7.1
2019-02-25T02:27:23.695Z,7.1
2019-02-25T02:28:25.217Z,7.1
2019-02-25T02:29:26.825Z,7.1
2019-02-25T02:30:28.319Z,7.1
2019-02-25T02:31:29.912Z,7.1
2019-02-25T02:32:31.538Z,7.1
2019-02-25T02:33:33.093Z,7.1
2019-02-25T02:34:34.630Z,7.1
2019-02-25T02:35:36.002Z,7.1
2019-02-25T02:36:37.572Z,7.1
2019-02-25T02:37:39.111Z,7.1
2019-02-25T02:38:40.677Z,7.1
2019-02-25T02:39:41.901Z,7.1
2019-02-25T02:40:43.153Z,7.1
2019-02-25T02:41:44.698Z,7.1
2019-02-25T02:42:46.101Z,7.1
2019-02-25T02:43:47.336Z,7.1
2019-02-25T02:44:48.596Z,7.1
2019-02-25T02:45:50.001Z,7.1
2019-02-25T02:46:51.538Z,7.1
2019-02-25T02:47:52.952Z,7.1
2019-02-25T02:48:54.347Z,7.2
2019-02-25T02:49:55.429Z,7.1
2019-02-25T02:50:57.081Z,7.1
2019-02-25T02:51:58.342Z,7.1
2019-02-25T02:52:59.440Z,7.2
2019-02-25T02:54:00.844Z,7.2
2019-02-25T02:55:02.409Z,7.2
2019-02-25T02:56:03.975Z,7.2
2019-02-25T02:57:05.559Z,7.2
2019-02-25T02:58:06.806Z,7.2
2019-02-25T02:59:08.379Z,7.2
2019-02-25T03:00:09.782Z,7.2
2019-02-25T03:01:11.181Z,7.2
2019-02-25T03:02:12.557Z,7.2
2019-02-25T03:03:14.130Z,7.2
2019-02-25T03:04:15.692Z,7.2
2019-02-25T03:05:17.200Z,7.2
2019-02-25T03:06:18.431Z,7.2
2019-02-25T03:07:19.836Z,7.2
2019-02-25T03:08:21.222Z,7.2
2019-02-25T03:09:22.798Z,7.2
2019-02-25T03:10:24.355Z,7.3
2019-02-25T03:11:25.902Z,7.3
2019-02-25T03:12:27.457Z,7.3
2019-02-25T03:13:28.863Z,7.3
2019-02-25T03:14:30.415Z,7.3
2019-02-25T03:15:31.671Z,7.3
2019-02-25T03:16:32.909Z,7.3
2019-02-25T03:17:34.309Z,7.3
2019-02-25T03:18:35.900Z,7.2
2019-02-25T03:19:37.462Z,7.2
2019-02-25T03:20:39.048Z,7.2
2019-02-25T03:21:40.428Z,7.2
2019-02-25T03:22:41.568Z,7.2
2019-02-25T03:23:43.133Z,7.2
2019-02-25T03:24:44.580Z,7.2
2019-02-25T03:25:45.808Z,7.2
2019-02-25T03:26:47.360Z,7.2
2019-02-25T03:27:48.786Z,7.2
2019-02-25T03:28:50.180Z,7.3
2019-02-25T03:29:51.566Z,7.3
2019-02-25T03:30:53.152Z,7.3
2019-02-25T03:31:54.819Z,7.4
2019-02-25T03:32:56.461Z,7.4
2019-02-25T03:33:57.912Z,7.4
2019-02-25T03:34:59.302Z,7.4
2019-02-25T03:36:00.858Z,7.4
2019-02-25T03:37:02.301Z,7.4
2019-02-25T03:38:03.695Z,7.4
2019-02-25T03:39:05.251Z,7.5
2019-02-25T03:40:06.689Z,7.5
2019-02-25T03:41:08.246Z,7.5
2019-02-25T03:42:09.792Z,7.5
2019-02-25T03:43:11.184Z,7.6
2019-02-25T03:44:12.570Z,7.6
2019-02-25T03:45:14.138Z,7.7
2019-02-25T03:46:15.367Z,7.7
2019-02-25T03:47:16.764Z,7.8
2019-02-25T03:48:18.309Z,7.8
2019-02-25T03:49:19.717Z,7.8
2019-02-25T03:50:21.277Z,7.8
2019-02-25T03:51:22.948Z,7.8
2019-02-25T03:52:24.331Z,7.8
2019-02-25T03:53:25.942Z,7.8
2019-02-25T03:54:27.497Z,7.8
2019-02-25T03:55:28.570Z,7.8
2019-02-25T03:56:30.027Z,7.8
2019-02-25T03:57:31.582Z,7.9
2019-02-25T03:58:32.823Z,7.9
2019-02-25T03:59:34.417Z,7.9
2019-02-25T04:00:35.657Z,7.9
2019-02-25T04:01:37.210Z,7.9
2019-02-25T04:02:38.634Z,7.9
2019-02-25T04:03:40.178Z,7.2
2019-02-25T04:04:41.733Z,7.3
2019-02-25T04:05:43.184Z,7.3
2019-02-25T04:06:44.753Z,7.3
2019-02-25T04:07:46.006Z,7.3
2019-02-25T04:08:47.423Z,7.2
2019-02-25T04:09:48.978Z,7.2
2019-02-25T04:10:50.355Z,7.2
2019-02-25T04:11:51.938Z,7.2
2019-02-25T04:12:53.491Z,7.2
2019-02-25T04:13:55.092Z,7.1
2019-02-25T04:14:56.642Z,7.2
2019-02-25T04:15:57.915Z,7.2
2019-02-25T04:16:59.331Z,7.1
2019-02-25T04:18:00.883Z,7.2
2019-02-25T04:19:02.303Z,7.2
2019-02-25T04:20:03.691Z,7.2
2019-02-25T04:21:05.311Z,7.2
2019-02-25T04:22:06.898Z,7.2
2019-02-25T04:23:08.494Z,7.2
2019-02-25T04:24:10.056Z,7.2
2019-02-25T04:25:11.448Z,7.2
2019-02-25T04:26:12.984Z,7.2
2019-02-25T04:27:14.381Z,7.2
2019-02-25T04:28:15.770Z,7.2
2019-02-25T04:29:17.174Z,7.3
2019-02-25T04:30:18.738Z,7.3
2019-02-25T04:31:20.294Z,7.4
2019-02-25T04:32:23.152Z,7.4
2019-02-25T04:33:24.673Z,7.5
2019-02-25T04:34:25.912Z,7.6
2019-02-25T04:35:27.680Z,7.7
2019-02-25T04:36:28.932Z,7.8
2019-02-25T04:37:30.501Z,7.8
2019-02-25T04:38:31.876Z,7.3
2019-02-25T04:39:33.268Z,7.3
2019-02-25T04:40:34.676Z,7.3
2019-02-25T04:41:36.079Z,7.3
2019-02-25T04:42:37.306Z,7.4
2019-02-25T04:43:38.845Z,7.4
2019-02-25T04:44:40.402Z,7.4
2019-02-25T04:45:41.803Z,7.4
2019-02-25T04:46:43.204Z,7.4
2019-02-25T04:47:44.896Z,7.4
2019-02-25T04:48:46.301Z,7.4
2019-02-25T04:49:47.842Z,7.4
2019-02-25T04:50:49.409Z,7.4
2019-02-25T04:51:50.848Z,7.4
2019-02-25T04:52:52.390Z,7.4
2019-02-25T04:53:53.698Z,7.4
2019-02-25T04:54:54.944Z,7.4
2019-02-25T04:55:56.479Z,7.4
2019-02-25T04:56:58.017Z,7.4
2019-02-25T04:57:59.416Z,7.4
2019-02-25T04:59:00.798Z,7.4
2019-02-25T05:00:02.382Z,7.4
2019-02-25T05:01:03.780Z,7.4
2019-02-25T05:02:05.355Z,7.4
2019-02-25T05:03:06.911Z,7.4
2019-02-25T05:04:08.310Z,7.4
2019-02-25T05:05:10.074Z,7.4
2019-02-25T05:06:11.620Z,7.5
2019-02-25T05:07:13.040Z,7.5
2019-02-25T05:08:14.434Z,7.5
2019-02-25T05:09:15.823Z,7.5
2019-02-25T05:10:17.220Z,7.5
2019-02-25T05:11:18.792Z,7.5
2019-02-25T05:12:20.383Z,7.6
2019-02-25T05:13:21.790Z,7.5
2019-02-25T05:14:23.315Z,7.6
2019-02-25T05:15:24.913Z,7.6
2019-02-25T05:16:26.635Z,7.6
2019-02-25T05:17:28.140Z,7.6
2019-02-25T05:18:29.723Z,7.6
2019-02-25T05:19:30.822Z,7.7
2019-02-25T05:20:32.438Z,7.7
2019-02-25T05:21:34.033Z,7.7
2019-02-25T05:22:38.184Z,7.7
2019-02-25T05:23:39.617Z,7.7
2019-02-25T05:24:41.175Z,7.6
2019-02-25T05:25:42.596Z,7.7
2019-02-25T05:26:44.014Z,7.7
2019-02-25T05:27:45.433Z,7.7
2019-02-25T05:28:46.864Z,7.7
2019-02-25T05:29:47.975Z,7.7
2019-02-25T05:30:49.555Z,7.7
2019-02-25T05:31:51.348Z,7.8
2019-02-25T05:32:52.951Z,7.8
2019-02-25T05:33:54.525Z,7.8
2019-02-25T05:34:55.941Z,7.8
2019-02-25T05:35:57.554Z,7.7
2019-02-25T05:36:58.951Z,7.7
2019-02-25T05:38:00.375Z,7.7
2019-02-25T05:39:01.813Z,7.7
2019-02-25T05:40:03.257Z,7.8
2019-02-25T05:41:04.666Z,7.8
2019-02-25T05:42:06.015Z,7.9
2019-02-25T05:43:07.475Z,7.9
2019-02-25T05:44:10.139Z,7.9
2019-02-25T05:45:11.582Z,7.9
2019-02-25T05:46:13.152Z,7.9
2019-02-25T05:47:14.754Z,7.9
2019-02-25T05:48:16.150Z,7.9
2019-02-25T05:49:17.556Z,7.8
2019-02-25T05:50:18.951Z,7.8
2019-02-25T05:51:20.386Z,7.8
2019-02-25T05:52:21.951Z,7.7
2019-02-25T05:53:23.510Z,7.7
2019-02-25T05:54:25.085Z,7.6
2019-02-25T05:55:26.483Z,7.5
2019-02-25T05:56:27.699Z,7.5
2019-02-25T05:57:30.042Z,7.4
2019-02-25T05:58:31.527Z,7.3
2019-02-25T05:59:33.090Z,7.2
2019-02-25T06:00:34.717Z,7.2
2019-02-25T06:01:36.287Z,7.2
2019-02-25T06:02:37.936Z,7.2
2019-02-25T06:03:39.504Z,7.2
2019-02-25T06:04:41.078Z,7.2
2019-02-25T06:05:42.630Z,7.2
2019-02-25T06:06:44.183Z,7.2
2019-02-25T06:07:45.747Z,7.2
2019-02-25T06:08:47.409Z,7.2
2019-02-25T06:09:48.835Z,7.2
2019-02-25T06:10:50.267Z,7.2
2019-02-25T06:11:51.530Z,7.2
2019-02-25T06:12:52.965Z,7.3
2019-02-25T06:13:54.392Z,7.3
2019-02-25T06:14:55.940Z,7.3
2019-02-25T06:15:57.511Z,7.4
2019-02-25T06:16:59.083Z,7.4
2019-02-25T06:18:00.493Z,7.5
2019-02-25T06:19:02.083Z,7.5
2019-02-25T06:20:03.661Z,7.5
2019-02-25T06:21:05.467Z,7.6
2019-02-25T06:22:06.911Z,7.6
2019-02-25T06:23:08.328Z,7.6
2019-02-25T06:24:09.883Z,7.6
2019-02-25T06:25:11.332Z,7.6
2019-02-25T06:26:13.395Z,7.7
2019-02-25T06:27:14.783Z,7.7
2019-02-25T06:28:16.323Z,7.7
2019-02-25T06:29:17.897Z,7.8
2019-02-25T06:30:19.479Z,7.8
2019-02-25T06:31:20.872Z,7.8
2019-02-25T06:32:22.296Z,7.9
2019-02-25T06:33:24.049Z,7.9
2019-02-25T06:34:25.650Z,7.9
2019-02-25T06:35:27.084Z,7.9
2019-02-25T06:36:28.635Z,7.9
2019-02-25T06:37:30.184Z,7.9
2019-02-25T06:38:31.443Z,7.9
2019-02-25T06:39:32.862Z,7.9
2019-02-25T06:40:34.441Z,7.9
2019-02-25T06:41:35.815Z,7.9
2019-02-25T06:42:37.376Z,7.9
2019-02-25T06:43:39.381Z,7.9
2019-02-25T06:44:40.929Z,7.9
2019-02-25T06:45:42.491Z,7.9
2019-02-25T06:46:43.893Z,7.9
2019-02-25T06:47:45.509Z,7.9
2019-02-25T06:48:47.083Z,7.9
2019-02-25T06:49:48.633Z,7.9
2019-02-25T06:50:50.181Z,7.2
2019-02-25T06:51:51.731Z,7.3
2019-02-25T06:52:53.287Z,7.3
2019-02-25T06:53:54.703Z,7.4
2019-02-25T06:54:56.259Z,7.4
2019-02-25T06:55:57.797Z,7.4
2019-02-25T06:56:58.941Z,7.5
2019-02-25T06:58:00.341Z,7.5
2019-02-25T06:59:01.741Z,7.5
2019-02-25T07:00:03.011Z,7.5
2019-02-25T07:01:04.421Z,7.5
2019-02-25T07:02:05.844Z,7.5
2019-02-25T07:03:07.441Z,7.5
2019-02-25T07:04:08.849Z,7.5
2019-02-25T07:05:10.248Z,7.5
2019-02-25T07:06:11.808Z,7.5
2019-02-25T07:07:13.219Z,7.5
2019-02-25T07:08:14.614Z,7.6
2019-02-25T07:09:16.179Z,7.6
2019-02-25T07:10:17.612Z,7.7
2019-02-25T07:11:18.990Z,7.7
2019-02-25T07:12:20.539Z,7.8
2019-02-25T07:13:22.112Z,7.8
2019-02-25T07:14:23.654Z,7.9
2019-02-25T07:15:25.180Z,7.9
2019-02-25T07:16:26.744Z,7.8
2019-02-25T07:17:28.327Z,7.8
2019-02-25T07:18:29.907Z,7.8
2019-02-25T07:19:31.518Z,7.7
2019-02-25T07:20:33.099Z,7.6
2019-02-25T07:21:34.493Z,7.6
2019-02-25T07:22:36.027Z,7.4
2019-02-25T07:23:39.069Z,7.3
2019-02-25T07:24:40.635Z,7.2
2019-02-25T07:25:42.023Z,7.2
2019-02-25T07:26:43.581Z,7.1
2019-02-25T07:27:44.982Z,7.1
2019-02-25T07:28:46.525Z,7.1
2019-02-25T07:29:48.079Z,7.2
2019-02-25T07:30:49.462Z,7.2
2019-02-25T07:31:50.897Z,7.1
2019-02-25T07:32:52.312Z,7.1
2019-02-25T07:33:53.707Z,7.2
2019-02-25T07:34:55.125Z,7.1
2019-02-25T07:35:56.537Z,7.1
2019-02-25T07:36:58.088Z,7.2
2019-02-25T07:37:59.492Z,7.2
2019-02-25T07:39:01.076Z,7.2
2019-02-25T07:40:02.313Z,7.2
2019-02-25T07:41:03.885Z,7.2
2019-02-25T07:42:05.289Z,7.2
2019-02-25T07:43:06.859Z,7.2
2019-02-25T07:44:08.454Z,7.2
2019-02-25T07:45:09.703Z,7.2
2019-02-25T07:46:11.256Z,7.2
2019-02-25T07:47:12.648Z,7.2
2019-02-25T07:48:14.212Z,7.3
2019-02-25T07:49:15.615Z,7.3
2019-02-25T07:50:17.165Z,7.4
2019-02-25T07:51:18.728Z,7.4
2019-02-25T07:52:20.122Z,7.5
2019-02-25T07:53:21.679Z,7.5
2019-02-25T07:54:23.231Z,7.5
2019-02-25T07:55:24.799Z,7.6
2019-02-25T07:56:26.073Z,7.6
2019-02-25T07:57:27.692Z,7.6
2019-02-25T07:58:29.078Z,7.7
2019-02-25T07:59:30.500Z,7.7
2019-02-25T08:00:32.043Z,7.7
2019-02-25T08:01:33.635Z,7.7
2019-02-25T08:02:35.025Z,7.8
2019-02-25T08:03:36.582Z,7.8
2019-02-25T08:04:37.970Z,7.9
2019-02-25T08:05:39.525Z,7.9
2019-02-25T08:06:40.935Z,7.9
2019-02-25T08:07:42.165Z,7.9
2019-02-25T08:08:43.390Z,7.9
2019-02-25T08:09:44.938Z,7.9
2019-02-25T08:10:46.543Z,7.9
2019-02-25T08:11:47.943Z,7.8
2019-02-25T08:12:49.498Z,7.8
2019-02-25T08:13:50.885Z,7.8
2019-02-25T08:14:52.274Z,7.8
2019-02-25T08:15:53.659Z,7.8
2019-02-25T08:16:55.068Z,7.8
2019-02-25T08:17:56.485Z,7.8
2019-02-25T08:18:58.043Z,7.8
2019-02-25T08:19:59.578Z,7.8
2019-02-25T08:21:00.839Z,7.7
2019-02-25T08:22:02.370Z,7.7
2019-02-25T08:23:03.771Z,7.7
2019-02-25T08:24:05.360Z,7.7
2019-02-25T08:25:06.661Z,7.7
2019-02-25T08:26:08.198Z,7.7
2019-02-25T08:27:09.751Z,7.8
2019-02-25T08:28:11.151Z,7.8
2019-02-25T08:29:12.562Z,7.8
2019-02-25T08:30:14.113Z,7.9
2019-02-25T08:31:15.726Z,7.9
2019-02-25T08:32:17.268Z,7.9
2019-02-25T08:33:18.811Z,7.9
2019-02-25T08:34:20.718Z,7.9
2019-02-25T08:35:21.803Z,7.9
2019-02-25T08:36:23.365Z,7.8
2019-02-25T08:37:24.609Z,7.8
2019-02-25T08:38:25.841Z,7.8
2019-02-25T08:39:27.075Z,7.8
2019-02-25T08:40:28.622Z,7.7
2019-02-25T08:41:30.017Z,7.7
2019-02-25T08:42:32.609Z,7.7
2019-02-25T08:43:34.170Z,7.7
2019-02-25T08:44:35.706Z,7.7
2019-02-25T08:45:37.259Z,7.8
2019-02-25T08:46:38.662Z,7.8
2019-02-25T08:47:40.210Z,7.9
2019-02-25T08:48:41.605Z,7.9
2019-02-25T08:49:43.131Z,7.9
2019-02-25T08:50:44.575Z,7.9
2019-02-25T08:51:46.125Z,7.9
2019-02-25T08:52:47.423Z,7.9
2019-02-25T08:53:48.812Z,7.8
2019-02-25T08:54:50.198Z,7.8
2019-02-25T08:55:51.591Z,7.8
2019-02-25T08:56:53.145Z,7.7
2019-02-25T08:57:54.717Z,7.7
2019-02-25T08:58:56.291Z,7.6
2019-02-25T08:59:57.851Z,7.5
2019-02-25T09:00:59.389Z,7.4
2019-02-25T09:02:00.810Z,7.2
2019-02-25T09:03:02.050Z,7.1
2019-02-25T09:04:03.468Z,7.1
2019-02-25T09:05:05.040Z,7.1
2019-02-25T09:06:06.437Z,7.1
2019-02-25T09:07:07.839Z,7.1
2019-02-25T09:08:09.221Z,7.1
2019-02-25T09:09:10.786Z,7.2
2019-02-25T09:10:14.460Z,7.2
2019-02-25T09:11:16.120Z,7.2
2019-02-25T09:12:17.679Z,7.2
2019-02-25T09:13:19.079Z,7.2
2019-02-25T09:14:20.515Z,7.2
2019-02-25T09:15:21.936Z,7.3
2019-02-25T09:16:23.489Z,7.4
2019-02-25T09:17:24.572Z,7.5
2019-02-25T09:18:26.021Z,7.6
2019-02-25T09:19:27.567Z,7.7
2019-02-25T09:20:29.103Z,7.8
2019-02-25T09:21:33.363Z,7.9
2019-02-25T09:22:34.748Z,7.3
2019-02-25T09:23:36.361Z,7.4
2019-02-25T09:24:37.747Z,7.5
2019-02-25T09:25:39.298Z,7.6
2019-02-25T09:26:40.705Z,7.6
2019-02-25T09:27:41.924Z,7.7
2019-02-25T09:28:43.488Z,7.7
2019-02-25T09:29:46.523Z,7.7
2019-02-25T09:30:47.975Z,7.6
2019-02-25T09:31:49.394Z,7.6
2019-02-25T09:32:50.881Z,7.6
2019-02-25T09:33:52.432Z,7.5
2019-02-25T09:34:53.977Z,7.5
2019-02-25T09:35:55.378Z,7.5
2019-02-25T09:36:56.930Z,7.5
2019-02-25T09:37:58.169Z,7.5
2019-02-25T09:38:59.725Z,7.5
2019-02-25T09:40:01.484Z,7.5
2019-02-25T09:41:03.039Z,7.6
2019-02-25T09:42:04.503Z,7.6
2019-02-25T09:43:06.072Z,7.6
2019-02-25T09:44:07.477Z,7.6
2019-02-25T09:45:08.931Z,7.6
2019-02-25T09:46:10.514Z,7.6
2019-02-25T09:47:11.929Z,7.6
2019-02-25T09:48:13.324Z,7.5
2019-02-25T09:49:14.750Z,7.5
2019-02-25T09:50:16.165Z,7.5
2019-02-25T09:51:17.701Z,7.5
2019-02-25T09:52:19.245Z,7.6
2019-02-25T09:53:20.793Z,7.7
2019-02-25T09:54:22.349Z,7.8
2019-02-25T09:55:25.230Z,7.9
2019-02-25T09:56:26.631Z,7.9
2019-02-25T09:57:28.178Z,7.9
2019-02-25T09:58:29.410Z,7.9
2019-02-25T09:59:30.965Z,7.9
2019-02-25T10:00:32.371Z,7.9
2019-02-25T10:01:33.770Z,7.9
2019-02-25T10:02:35.209Z,7.9
2019-02-25T10:03:36.794Z,7.9
2019-02-25T10:04:38.017Z,7.9
2019-02-25T10:05:39.558Z,7.8
2019-02-25T10:06:40.823Z,7.9
2019-02-25T10:07:42.378Z,7.9
2019-02-25T10:08:43.927Z,7.9
2019-02-25T10:09:45.326Z,7.8
2019-02-25T10:10:46.725Z,7.8
2019-02-25T10:11:50.082Z,7.8
2019-02-25T10:12:51.649Z,7.8
2019-02-25T10:13:53.463Z,7.8
2019-02-25T10:14:54.950Z,7.8
2019-02-25T10:15:56.390Z,7.8
2019-02-25T10:16:57.942Z,7.8
2019-02-25T10:17:59.223Z,7.7
2019-02-25T10:19:00.451Z,7.8
2019-02-25T10:20:01.670Z,7.8
2019-02-25T10:21:02.726Z,7.8
2019-02-25T10:22:04.119Z,7.8
2019-02-25T10:23:05.531Z,7.9
2019-02-25T10:24:07.089Z,7.8
2019-02-25T10:25:08.662Z,7.9
2019-02-25T10:26:10.211Z,7.9
2019-02-25T10:27:11.772Z,7.9
2019-02-25T10:28:13.171Z,7.9
2019-02-25T10:29:14.728Z,7.9
2019-02-25T10:30:16.182Z,7.9
2019-02-25T10:31:19.059Z,7.8
2019-02-25T10:32:20.618Z,7.8
2019-02-25T10:33:22.058Z,7.7
2019-02-25T10:34:25.480Z,7.6
2019-02-25T10:35:28.731Z,7.4
2019-02-25T10:36:30.282Z,7.3
2019-02-25T10:37:31.852Z,7.2
2019-02-25T10:38:33.244Z,7.2
2019-02-25T10:39:34.658Z,7.2
2019-02-25T10:40:36.071Z,7.1
2019-02-25T10:41:37.503Z,7.1
2019-02-25T10:42:39.322Z,7.2
2019-02-25T10:43:40.563Z,7.2
2019-02-25T10:44:42.128Z,7.2
2019-02-25T10:45:46.648Z,7.2
2019-02-25T10:46:50.490Z,7.2
2019-02-25T10:47:59.881Z,7.2
2019-02-25T10:49:13.086Z,7.2
2019-02-25T10:50:14.662Z,7.2
2019-02-25T10:51:16.207Z,7.2
2019-02-25T10:52:18.888Z,7.2
2019-02-25T10:53:23.267Z,7.2
2019-02-25T10:54:26.762Z,7.2
2019-02-25T10:55:28.315Z,7.2
2019-02-25T10:56:29.568Z,7.2
2019-02-25T10:57:32.907Z,7.2
2019-02-25T10:58:37.245Z,7.2
2019-02-25T10:59:42.606Z,7.2
2019-02-25T11:00:47.292Z,7.2
2019-02-25T11:01:49.031Z,7.2
2019-02-25T11:02:58.942Z,7.3
2019-02-25T11:04:00.498Z,7.3
2019-02-25T11:05:02.042Z,7.3
2019-02-25T11:06:04.817Z,7.4
2019-02-25T11:07:10.742Z,7.4
2019-02-25T11:08:15.208Z,7.5
2019-02-25T11:09:19.308Z,7.6
2019-02-25T11:10:23.626Z,7.6
2019-02-25T11:11:28.228Z,7.7
2019-02-25T11:12:33.371Z,7.8
2019-02-25T11:13:37.894Z,7.8
2019-02-25T11:14:44.551Z,7.8
2019-02-25T11:15:49.505Z,7.9
2019-02-25T11:16:53.477Z,7.9
2019-02-25T11:17:57.410Z,7.9
2019-02-25T11:19:02.156Z,7.9
2019-02-25T11:20:07.006Z,7.8
2019-02-25T11:21:11.531Z,7.8
2019-02-25T11:22:17.454Z,7.8
2019-02-25T11:23:22.626Z,7.8
2019-02-25T11:24:26.772Z,7.8
2019-02-25T11:25:31.462Z,7.8
2019-02-25T11:26:36.444Z,7.8
2019-02-25T11:27:41.096Z,7.8
2019-02-25T11:28:45.164Z,7.8
2019-02-25T11:29:49.540Z,7.9
2019-02-25T11:30:54.965Z,7.9
2019-02-25T11:31:57.106Z,7.9
2019-02-25T11:33:01.307Z,7.9
2019-02-25T11:34:09.020Z,7.9
2019-02-25T11:35:14.298Z,7.9
2019-02-25T11:36:22.932Z,7.9
2019-02-25T11:37:28.321Z,7.9
2019-02-25T11:38:38.347Z,7.9
2019-02-25T11:39:39.756Z,7.9
2019-02-25T11:40:40.992Z,7.9
2019-02-25T11:41:42.341Z,7.9
2019-02-25T11:42:43.908Z,7.9
2019-02-25T11:43:55.932Z,7.9
2019-02-25T11:45:05.318Z,7.9
2019-02-25T11:46:06.736Z,7.9
2019-02-25T11:47:08.337Z,7.9
2019-02-25T11:48:09.737Z,7.9
2019-02-25T11:49:10.835Z,7.9
2019-02-25T11:50:12.396Z,7.9
2019-02-25T11:51:14.020Z,7.8
2019-02-25T11:52:15.800Z,7.8
2019-02-25T11:53:17.353Z,7.8
2019-02-25T11:54:18.911Z,7.8
2019-02-25T11:55:22.670Z,7.7
2019-02-25T11:56:24.078Z,7.7
2019-02-25T11:57:25.475Z,7.7
2019-02-25T11:58:26.765Z,7.7
2019-02-25T11:59:28.173Z,7.7
2019-02-25T12:00:29.784Z,7.6
2019-02-25T12:01:31.342Z,7.6
2019-02-25T12:02:32.764Z,7.6
2019-02-25T12:03:34.000Z,7.6
2019-02-25T12:04:35.405Z,7.6
2019-02-25T12:05:36.804Z,7.6
2019-02-25T12:06:38.362Z,7.6
2019-02-25T12:07:39.892Z,7.6
2019-02-25T12:08:41.296Z,7.6
2019-02-25T12:09:42.861Z,7.6
2019-02-25T12:10:44.253Z,7.7
2019-02-25T12:11:45.861Z,7.7
2019-02-25T12:12:47.116Z,7.7
2019-02-25T12:13:48.531Z,7.6
2019-02-25T12:14:50.083Z,7.5
2019-02-25T12:15:51.656Z,7.4
2019-02-25T12:16:53.053Z,7.2
2019-02-25T12:17:54.615Z,7.2
2019-02-25T12:18:56.173Z,7.2
2019-02-25T12:19:57.583Z,7.1
2019-02-25T12:20:59.008Z,7.2
2019-02-25T12:22:00.607Z,7.2
2019-02-25T12:23:02.008Z,7.1
2019-02-25T12:24:03.587Z,7.2
2019-02-25T12:25:05.122Z,7.1
2019-02-25T12:26:06.558Z,7.1
2019-02-25T12:27:08.100Z,7.1
2019-02-25T12:28:09.639Z,7.2
2019-02-25T12:29:12.453Z,7.1
2019-02-25T12:30:14.008Z,7.1
2019-02-25T12:31:15.580Z,7.1
2019-02-25T12:32:17.146Z,7.1
2019-02-25T12:33:18.699Z,7.1
2019-02-25T12:34:20.083Z,7.1
2019-02-25T12:35:21.628Z,7.2
2019-02-25T12:36:23.194Z,7.2
2019-02-25T12:37:24.750Z,7.2
2019-02-25T12:38:26.326Z,7.2
2019-02-25T12:39:27.720Z,7.2
2019-02-25T12:40:28.810Z,7.2
2019-02-25T12:41:30.360Z,7.2
2019-02-25T12:42:31.745Z,7.2
2019-02-25T12:43:33.297Z,7.3
2019-02-25T12:44:34.698Z,7.3
2019-02-25T12:45:35.960Z,7.4
2019-02-25T12:46:37.506Z,7.5
2019-02-25T12:47:39.112Z,7.5
2019-02-25T12:48:40.482Z,7.6
2019-02-25T12:49:41.932Z,7.7
2019-02-25T12:50:43.504Z,7.8
2019-02-25T12:51:45.115Z,7.9
2019-02-25T12:52:46.666Z,7.9
2019-02-25T12:53:48.268Z,7.9
2019-02-25T12:54:49.513Z,7.9
2019-02-25T12:55:50.947Z,7.9
2019-02-25T12:56:52.206Z,7.9
2019-02-25T12:57:53.789Z,7.9
2019-02-25T12:58:55.189Z,7.9
2019-02-25T12:59:56.590Z,7.7
2019-02-25T13:00:57.834Z,7.8
2019-02-25T13:01:59.407Z,7.8
2019-02-25T13:03:00.986Z,7.9
2019-02-25T13:04:02.589Z,7.9
2019-02-25T13:05:04.175Z,7.9
2019-02-25T13:06:05.610Z,7.8
2019-02-25T13:07:06.870Z,7.8
2019-02-25T13:08:08.296Z,7.8
2019-02-25T13:09:09.697Z,7.2
2019-02-25T13:10:11.285Z,7.2
2019-02-25T13:11:12.704Z,7.3
2019-02-25T13:12:14.264Z,7.4
2019-02-25T13:13:15.826Z,7.5
2019-02-25T13:14:17.392Z,7.5
2019-02-25T13:15:18.968Z,7.6
2019-02-25T13:16:20.419Z,7.7
2019-02-25T13:17:21.983Z,7.7
2019-02-25T13:18:23.252Z,7.8
2019-02-25T13:19:24.857Z,7.8
2019-02-25T13:20:26.103Z,7.8
2019-02-25T13:21:27.368Z,7.8
2019-02-25T13:22:28.775Z,7.8
2019-02-25T13:23:30.364Z,7.8
2019-02-25T13:24:40.090Z,7.8
2019-02-25T13:25:41.646Z,7.9
2019-02-25T13:26:43.087Z,7.9
2019-02-25T13:27:45.856Z,7.9
2019-02-25T13:28:47.389Z,7.9
2019-02-25T13:29:51.216Z,7.9
2019-02-25T13:30:52.856Z,7.9
2019-02-25T13:31:54.511Z,7.9
2019-02-25T13:32:56.158Z,7.9
2019-02-25T13:33:57.814Z,7.8
2019-02-25T13:34:59.338Z,7.8
2019-02-25T13:36:00.988Z,7.8
2019-02-25T13:37:02.508Z,7.8
2019-02-25T13:38:05.505Z,7.8
2019-02-25T13:39:07.059Z,7.8
2019-02-25T13:40:08.420Z,7.9
2019-02-25T13:41:10.151Z,7.9
2019-02-25T13:42:11.716Z,7.8
2019-02-25T13:43:13.260Z,7.8
2019-02-25T13:44:14.636Z,7.8
2019-02-25T13:45:16.391Z,7.8
2019-02-25T13:46:17.530Z,7.8
2019-02-25T13:47:19.502Z,7.8
2019-02-25T13:48:21.384Z,7.9
2019-02-25T13:49:22.985Z,7.9
2019-02-25T13:50:24.599Z,7.9
2019-02-25T13:51:26.293Z,7.9
2019-02-25T13:52:27.951Z,7.9
2019-02-25T13:53:29.577Z,7.9
2019-02-25T13:54:31.371Z,7.2
2019-02-25T13:55:34.288Z,7.3
2019-02-25T13:56:36.113Z,7.3
2019-02-25T13:57:37.696Z,7.3
2019-02-25T13:58:39.380Z,7.3
2019-02-25T13:59:40.907Z,7.2
2019-02-25T14:00:42.592Z,7.2
2019-02-25T14:01:44.324Z,7.2
2019-02-25T14:02:45.972Z,7.1
2019-02-25T14:03:47.944Z,7.1
2019-02-25T14:04:51.432Z,7.1
2019-02-25T14:05:53.352Z,7.1
2019-02-25T14:06:54.981Z,7.2
2019-02-25T14:07:56.664Z,7.1
2019-02-25T14:08:58.155Z,7.1
2019-02-25T14:09:59.784Z,7.1
2019-02-25T14:11:01.258Z,7.1